sensor_id;sensor_type;location;lat;lon;timestamp;pressure;altitude;pressure_sealevel;temperature;humidity
61086;BME280;46967;48.876;2.136;2023-04-15T00:01:08;100246.78;;;39.99;nan
61086;BME280;46967;48.876;2.136;2023-04-15T00:03:34;100243.31;;;40.03;nan
61086;BME280;46967;48.876;2.136;2023-04-15T00:05:59;100241.97;;;40.06;nan
61086;BME280;46967;48.876;2.136;2023-04-15T00:08:25;100233.34;;;39.92;nan
61086;BME280;46967;48.876;2.136;2023-04-15T00:10:51;100234.75;;;39.95;nan
61086;BME280;46967;48.876;2.136;2023-04-15T00:13:17;100230.88;;;39.91;nan
61086;BME280;46967;48.876;2.136;2023-04-15T00:15:42;100232.19;;;39.83;nan
61086;BME280;46967;48.876;2.136;2023-04-15T00:18:08;100223.97;;;39.78;nan
61086;BME280;46967;48.876;2.136;2023-04-15T00:20:34;100223.19;;;39.82;nan
61086;BME280;46967;48.876;2.136;2023-04-15T00:22:59;100222.59;;;39.75;nan
61086;BME280;46967;48.876;2.136;2023-04-15T00:25:25;100225.16;;;39.87;nan
61086;BME280;46967;48.876;2.136;2023-04-15T00:27:50;100223.19;;;40.05;nan
61086;BME280;46967;48.876;2.136;2023-04-15T00:30:16;100216.16;;;40.03;nan
61086;BME280;46967;48.876;2.136;2023-04-15T00:32:41;100218.41;;;40.12;nan
61086;BME280;46967;48.876;2.136;2023-04-15T00:35:07;100214.03;;;40.11;nan
61086;BME280;46967;48.876;2.136;2023-04-15T00:37:33;100207.31;;;40.18;nan
61086;BME280;46967;48.876;2.136;2023-04-15T00:39:59;100217.75;;;40.32;nan
61086;BME280;46967;48.876;2.136;2023-04-15T00:42:25;100210.38;;;40.27;nan
61086;BME280;46967;48.876;2.136;2023-04-15T00:44:50;100204.38;;;40.25;nan
61086;BME280;46967;48.876;2.136;2023-04-15T00:47:17;100208.19;;;40.24;nan
61086;BME280;46967;48.876;2.136;2023-04-15T00:49:43;100200.38;;;40.33;nan
61086;BME280;46967;48.876;2.136;2023-04-15T00:52:08;100196.50;;;40.24;nan
61086;BME280;46967;48.876;2.136;2023-04-15T00:54:34;100198.97;;;40.25;nan
61086;BME280;46967;48.876;2.136;2023-04-15T00:56:59;100198.09;;;40.19;nan
61086;BME280;46967;48.876;2.136;2023-04-15T00:59:25;100190.50;;;40.21;nan
61086;BME280;46967;48.876;2.136;2023-04-15T01:01:51;100193.00;;;40.28;nan
61086;BME280;46967;48.876;2.136;2023-04-15T01:04:17;100186.84;;;40.38;nan
61086;BME280;46967;48.876;2.136;2023-04-15T01:06:42;100185.59;;;40.51;nan
61086;BME280;46967;48.876;2.136;2023-04-15T01:09:08;100184.47;;;40.42;nan
61086;BME280;46967;48.876;2.136;2023-04-15T01:11:34;100182.75;;;40.35;nan
61086;BME280;46967;48.876;2.136;2023-04-15T01:13:59;100180.94;;;40.46;nan
61086;BME280;46967;48.876;2.136;2023-04-15T01:16:25;100179.09;;;40.52;nan
61086;BME280;46967;48.876;2.136;2023-04-15T01:18:52;100185.41;;;40.58;nan
61086;BME280;46967;48.876;2.136;2023-04-15T01:21:18;100181.00;;;40.51;nan
61086;BME280;46967;48.876;2.136;2023-04-15T01:23:45;100185.72;;;40.34;nan
61086;BME280;46967;48.876;2.136;2023-04-15T01:26:11;100192.41;;;40.48;nan
61086;BME280;46967;48.876;2.136;2023-04-15T01:28:37;100193.22;;;40.49;nan
61086;BME280;46967;48.876;2.136;2023-04-15T01:31:06;100187.69;;;40.38;nan
61086;BME280;46967;48.876;2.136;2023-04-15T01:33:32;100187.63;;;40.33;nan
61086;BME280;46967;48.876;2.136;2023-04-15T01:35:57;100182.69;;;40.30;nan
61086;BME280;46967;48.876;2.136;2023-04-15T01:38:23;100187.88;;;40.32;nan
61086;BME280;46967;48.876;2.136;2023-04-15T01:40:48;100192.00;;;40.39;nan
61086;BME280;46967;48.876;2.136;2023-04-15T01:43:13;100191.47;;;40.37;nan
61086;BME280;46967;48.876;2.136;2023-04-15T01:45:39;100197.97;;;40.36;nan
61086;BME280;46967;48.876;2.136;2023-04-15T01:48:05;100198.91;;;40.47;nan
61086;BME280;46967;48.876;2.136;2023-04-15T01:50:31;100205.06;;;40.10;nan
61086;BME280;46967;48.876;2.136;2023-04-15T01:52:56;100197.50;;;39.24;nan
61086;BME280;46967;48.876;2.136;2023-04-15T01:55:22;100216.41;;;39.58;nan
61086;BME280;46967;48.876;2.136;2023-04-15T01:57:47;100218.63;;;39.05;nan
61086;BME280;46967;48.876;2.136;2023-04-15T02:00:13;100224.13;;;39.27;nan
61086;BME280;46967;48.876;2.136;2023-04-15T02:02:38;100234.03;;;37.43;nan
61086;BME280;46967;48.876;2.136;2023-04-15T02:05:04;100233.31;;;38.41;nan
61086;BME280;46967;48.876;2.136;2023-04-15T02:07:29;100237.03;;;39.03;nan
61086;BME280;46967;48.876;2.136;2023-04-15T02:09:56;100241.47;;;39.26;nan
61086;BME280;46967;48.876;2.136;2023-04-15T02:12:21;100242.28;;;39.26;nan
61086;BME280;46967;48.876;2.136;2023-04-15T02:14:47;100251.53;;;38.46;nan
61086;BME280;46967;48.876;2.136;2023-04-15T02:17:12;100254.31;;;38.51;nan
61086;BME280;46967;48.876;2.136;2023-04-15T02:19:37;100251.75;;;37.86;nan
61086;BME280;46967;48.876;2.136;2023-04-15T02:22:04;100250.50;;;38.18;nan
61086;BME280;46967;48.876;2.136;2023-04-15T02:24:33;100263.31;;;38.68;nan
61086;BME280;46967;48.876;2.136;2023-04-15T02:26:58;100258.16;;;37.45;nan
61086;BME280;46967;48.876;2.136;2023-04-15T02:29:24;100260.09;;;38.26;nan
61086;BME280;46967;48.876;2.136;2023-04-15T02:31:49;100264.00;;;39.09;nan
61086;BME280;46967;48.876;2.136;2023-04-15T02:34:15;100258.75;;;39.20;nan
61086;BME280;46967;48.876;2.136;2023-04-15T02:36:40;100264.88;;;39.71;nan
61086;BME280;46967;48.876;2.136;2023-04-15T02:39:06;100266.63;;;39.82;nan
61086;BME280;46967;48.876;2.136;2023-04-15T02:41:31;100270.94;;;39.56;nan
61086;BME280;46967;48.876;2.136;2023-04-15T02:43:57;100270.34;;;39.54;nan
61086;BME280;46967;48.876;2.136;2023-04-15T02:46:22;100279.75;;;39.46;nan
61086;BME280;46967;48.876;2.136;2023-04-15T02:48:48;100278.66;;;39.47;nan
61086;BME280;46967;48.876;2.136;2023-04-15T02:51:18;100282.63;;;38.26;nan
61086;BME280;46967;48.876;2.136;2023-04-15T02:53:45;100287.34;;;38.19;nan
61086;BME280;46967;48.876;2.136;2023-04-15T02:56:11;100294.06;;;38.45;nan
61086;BME280;46967;48.876;2.136;2023-04-15T02:58:37;100300.63;;;38.95;nan
61086;BME280;46967;48.876;2.136;2023-04-15T03:01:03;100299.53;;;36.68;nan
61086;BME280;46967;48.876;2.136;2023-04-15T03:03:28;100306.81;;;36.97;nan
61086;BME280;46967;48.876;2.136;2023-04-15T03:05:53;100309.06;;;37.48;nan
61086;BME280;46967;48.876;2.136;2023-04-15T03:08:19;100312.25;;;37.80;nan
61086;BME280;46967;48.876;2.136;2023-04-15T03:10:47;100312.75;;;37.42;nan
61086;BME280;46967;48.876;2.136;2023-04-15T03:13:13;100326.84;;;36.78;nan
61086;BME280;46967;48.876;2.136;2023-04-15T03:15:38;100325.28;;;37.95;nan
61086;BME280;46967;48.876;2.136;2023-04-15T03:18:03;100335.50;;;36.01;nan
61086;BME280;46967;48.876;2.136;2023-04-15T03:20:28;100333.31;;;36.58;nan
61086;BME280;46967;48.876;2.136;2023-04-15T03:22:54;100341.28;;;37.26;nan
61086;BME280;46967;48.876;2.136;2023-04-15T03:25:19;100340.00;;;37.99;nan
61086;BME280;46967;48.876;2.136;2023-04-15T03:27:45;100345.47;;;35.31;nan
61086;BME280;46967;48.876;2.136;2023-04-15T03:30:10;100347.44;;;34.40;nan
61086;BME280;46967;48.876;2.136;2023-04-15T03:32:36;100347.56;;;35.23;nan
61086;BME280;46967;48.876;2.136;2023-04-15T03:35:02;100359.97;;;35.81;nan
61086;BME280;46967;48.876;2.136;2023-04-15T03:37:27;100355.25;;;35.26;nan
61086;BME280;46967;48.876;2.136;2023-04-15T03:39:52;100364.56;;;35.99;nan
61086;BME280;46967;48.876;2.136;2023-04-15T03:42:18;100369.38;;;35.97;nan
61086;BME280;46967;48.876;2.136;2023-04-15T03:44:43;100369.66;;;37.35;nan
61086;BME280;46967;48.876;2.136;2023-04-15T03:47:08;100373.59;;;35.42;nan
61086;BME280;46967;48.876;2.136;2023-04-15T03:49:35;100370.59;;;36.87;nan
61086;BME280;46967;48.876;2.136;2023-04-15T03:52:00;100375.06;;;37.59;nan
61086;BME280;46967;48.876;2.136;2023-04-15T03:54:26;100374.31;;;35.24;nan
61086;BME280;46967;48.876;2.136;2023-04-15T03:56:51;100379.06;;;36.90;nan
61086;BME280;46967;48.876;2.136;2023-04-15T03:59:16;100379.13;;;37.14;nan
61086;BME280;46967;48.876;2.136;2023-04-15T04:01:42;100376.81;;;36.69;nan
61086;BME280;46967;48.876;2.136;2023-04-15T04:04:07;100383.34;;;36.79;nan
61086;BME280;46967;48.876;2.136;2023-04-15T04:06:33;100388.25;;;36.71;nan
61086;BME280;46967;48.876;2.136;2023-04-15T04:08:58;100393.16;;;34.54;nan
61086;BME280;46967;48.876;2.136;2023-04-15T04:11:23;100394.09;;;35.94;nan
61086;BME280;46967;48.876;2.136;2023-04-15T04:13:49;100389.25;;;37.19;nan
61086;BME280;46967;48.876;2.136;2023-04-15T04:16:14;100397.72;;;36.80;nan
61086;BME280;46967;48.876;2.136;2023-04-15T04:18:40;100395.91;;;35.74;nan
61086;BME280;46967;48.876;2.136;2023-04-15T04:21:05;100396.09;;;37.33;nan
61086;BME280;46967;48.876;2.136;2023-04-15T04:23:31;100401.97;;;35.45;nan
61086;BME280;46967;48.876;2.136;2023-04-15T04:25:57;100403.59;;;35.20;nan
61086;BME280;46967;48.876;2.136;2023-04-15T04:28:22;100406.94;;;34.84;nan
61086;BME280;46967;48.876;2.136;2023-04-15T04:30:47;100411.38;;;35.04;nan
61086;BME280;46967;48.876;2.136;2023-04-15T04:33:13;100409.09;;;35.39;nan
61086;BME280;46967;48.876;2.136;2023-04-15T04:35:38;100404.03;;;36.55;nan
61086;BME280;46967;48.876;2.136;2023-04-15T04:38:03;100421.28;;;36.54;nan
61086;BME280;46967;48.876;2.136;2023-04-15T04:40:29;100425.16;;;37.38;nan
61086;BME280;46967;48.876;2.136;2023-04-15T04:42:54;100425.34;;;36.94;nan
61086;BME280;46967;48.876;2.136;2023-04-15T04:45:20;100425.47;;;38.07;nan
61086;BME280;46967;48.876;2.136;2023-04-15T04:47:46;100426.38;;;37.53;nan
61086;BME280;46967;48.876;2.136;2023-04-15T04:50:12;100437.94;;;36.70;nan
61086;BME280;46967;48.876;2.136;2023-04-15T04:52:38;100440.31;;;37.27;nan
61086;BME280;46967;48.876;2.136;2023-04-15T04:55:04;100442.47;;;37.60;nan
61086;BME280;46967;48.876;2.136;2023-04-15T04:57:29;100447.47;;;36.54;nan
61086;BME280;46967;48.876;2.136;2023-04-15T04:59:55;100448.31;;;36.36;nan
61086;BME280;46967;48.876;2.136;2023-04-15T05:02:20;100463.81;;;35.71;nan
61086;BME280;46967;48.876;2.136;2023-04-15T05:04:46;100462.63;;;36.92;nan
61086;BME280;46967;48.876;2.136;2023-04-15T05:07:11;100473.66;;;36.35;nan
61086;BME280;46967;48.876;2.136;2023-04-15T05:09:36;100475.53;;;36.71;nan
61086;BME280;46967;48.876;2.136;2023-04-15T05:12:05;100471.72;;;37.09;nan
61086;BME280;46967;48.876;2.136;2023-04-15T05:14:31;100495.03;;;35.29;nan
61086;BME280;46967;48.876;2.136;2023-04-15T05:16:57;100496.13;;;35.53;nan
61086;BME280;46967;48.876;2.136;2023-04-15T05:19:22;100494.84;;;36.13;nan
61086;BME280;46967;48.876;2.136;2023-04-15T05:21:48;100498.84;;;35.53;nan
61086;BME280;46967;48.876;2.136;2023-04-15T05:24:13;100506.47;;;35.17;nan
61086;BME280;46967;48.876;2.136;2023-04-15T05:26:38;100511.09;;;36.31;nan
61086;BME280;46967;48.876;2.136;2023-04-15T05:29:03;100514.84;;;35.73;nan
61086;BME280;46967;48.876;2.136;2023-04-15T05:31:29;100523.94;;;36.11;nan
61086;BME280;46967;48.876;2.136;2023-04-15T05:33:54;100527.78;;;36.47;nan
61086;BME280;46967;48.876;2.136;2023-04-15T05:36:20;100522.22;;;36.16;nan
61086;BME280;46967;48.876;2.136;2023-04-15T05:38:45;100532.69;;;36.75;nan
61086;BME280;46967;48.876;2.136;2023-04-15T05:41:11;100539.41;;;35.65;nan
61086;BME280;46967;48.876;2.136;2023-04-15T05:43:36;100551.28;;;35.18;nan
61086;BME280;46967;48.876;2.136;2023-04-15T05:46:01;100558.22;;;36.10;nan
61086;BME280;46967;48.876;2.136;2023-04-15T05:48:27;100557.03;;;35.35;nan
61086;BME280;46967;48.876;2.136;2023-04-15T05:50:52;100561.59;;;35.67;nan
61086;BME280;46967;48.876;2.136;2023-04-15T05:53:17;100571.66;;;35.53;nan
61086;BME280;46967;48.876;2.136;2023-04-15T05:55:43;100574.78;;;36.83;nan
61086;BME280;46967;48.876;2.136;2023-04-15T05:58:08;100583.00;;;35.62;nan
61086;BME280;46967;48.876;2.136;2023-04-15T06:00:33;100587.94;;;36.79;nan
61086;BME280;46967;48.876;2.136;2023-04-15T06:02:59;100587.34;;;36.01;nan
61086;BME280;46967;48.876;2.136;2023-04-15T06:05:25;100595.00;;;35.27;nan
61086;BME280;46967;48.876;2.136;2023-04-15T06:07:50;100598.03;;;34.86;nan
61086;BME280;46967;48.876;2.136;2023-04-15T06:10:16;100610.25;;;35.53;nan
61086;BME280;46967;48.876;2.136;2023-04-15T06:12:41;100620.25;;;36.17;nan
61086;BME280;46967;48.876;2.136;2023-04-15T06:15:07;100635.44;;;35.79;nan
61086;BME280;46967;48.876;2.136;2023-04-15T06:17:34;100630.97;;;34.88;nan
61086;BME280;46967;48.876;2.136;2023-04-15T06:20:00;100635.09;;;37.20;nan
61086;BME280;46967;48.876;2.136;2023-04-15T06:22:25;100637.44;;;37.35;nan
61086;BME280;46967;48.876;2.136;2023-04-15T06:24:50;100640.00;;;36.93;nan
61086;BME280;46967;48.876;2.136;2023-04-15T06:27:16;100651.84;;;37.10;nan
61086;BME280;46967;48.876;2.136;2023-04-15T06:29:42;100656.94;;;37.56;nan
61086;BME280;46967;48.876;2.136;2023-04-15T06:32:07;100657.97;;;36.55;nan
61086;BME280;46967;48.876;2.136;2023-04-15T06:34:32;100667.03;;;36.93;nan
61086;BME280;46967;48.876;2.136;2023-04-15T06:36:58;100672.00;;;35.75;nan
61086;BME280;46967;48.876;2.136;2023-04-15T06:39:23;100679.72;;;36.10;nan
61086;BME280;46967;48.876;2.136;2023-04-15T06:41:48;100689.75;;;35.96;nan
61086;BME280;46967;48.876;2.136;2023-04-15T06:44:14;100689.75;;;36.60;nan
61086;BME280;46967;48.876;2.136;2023-04-15T06:46:40;100693.09;;;37.06;nan
61086;BME280;46967;48.876;2.136;2023-04-15T06:49:06;100700.25;;;36.68;nan
61086;BME280;46967;48.876;2.136;2023-04-15T06:51:31;100698.88;;;37.46;nan
61086;BME280;46967;48.876;2.136;2023-04-15T06:53:56;100707.59;;;35.45;nan
61086;BME280;46967;48.876;2.136;2023-04-15T06:56:22;100711.81;;;37.44;nan
61086;BME280;46967;48.876;2.136;2023-04-15T06:58:49;100719.56;;;37.41;nan
61086;BME280;46967;48.876;2.136;2023-04-15T07:01:14;100722.53;;;37.14;nan
61086;BME280;46967;48.876;2.136;2023-04-15T07:03:39;100725.25;;;35.14;nan
61086;BME280;46967;48.876;2.136;2023-04-15T07:06:06;100738.91;;;36.05;nan
61086;BME280;46967;48.876;2.136;2023-04-15T07:08:32;100743.47;;;36.75;nan
61086;BME280;46967;48.876;2.136;2023-04-15T07:10:59;100747.94;;;36.24;nan
61086;BME280;46967;48.876;2.136;2023-04-15T07:13:24;100760.28;;;37.27;nan
61086;BME280;46967;48.876;2.136;2023-04-15T07:15:50;100760.75;;;37.17;nan
61086;BME280;46967;48.876;2.136;2023-04-15T07:18:15;100758.16;;;36.86;nan
61086;BME280;46967;48.876;2.136;2023-04-15T07:20:41;100767.94;;;37.05;nan
61086;BME280;46967;48.876;2.136;2023-04-15T07:23:07;100785.56;;;36.19;nan
61086;BME280;46967;48.876;2.136;2023-04-15T07:25:32;100778.84;;;37.24;nan
61086;BME280;46967;48.876;2.136;2023-04-15T07:27:57;100783.78;;;36.44;nan
61086;BME280;46967;48.876;2.136;2023-04-15T07:30:23;100784.31;;;36.92;nan
61086;BME280;46967;48.876;2.136;2023-04-15T07:32:48;100787.28;;;37.09;nan
61086;BME280;46967;48.876;2.136;2023-04-15T07:35:13;100793.44;;;37.23;nan
61086;BME280;46967;48.876;2.136;2023-04-15T07:37:39;100795.81;;;38.05;nan
61086;BME280;46967;48.876;2.136;2023-04-15T07:40:05;100790.16;;;35.19;nan
61086;BME280;46967;48.876;2.136;2023-04-15T07:42:33;100814.50;;;36.05;nan
61086;BME280;46967;48.876;2.136;2023-04-15T07:44:58;100812.22;;;36.08;nan
61086;BME280;46967;48.876;2.136;2023-04-15T07:47:23;100823.56;;;37.26;nan
61086;BME280;46967;48.876;2.136;2023-04-15T07:49:49;100827.75;;;36.13;nan
61086;BME280;46967;48.876;2.136;2023-04-15T07:52:15;100823.69;;;35.90;nan
61086;BME280;46967;48.876;2.136;2023-04-15T07:54:41;100834.75;;;36.73;nan
61086;BME280;46967;48.876;2.136;2023-04-15T07:57:06;100837.28;;;35.30;nan
61086;BME280;46967;48.876;2.136;2023-04-15T07:59:32;100840.97;;;34.89;nan
61086;BME280;46967;48.876;2.136;2023-04-15T08:01:58;100844.94;;;37.03;nan
61086;BME280;46967;48.876;2.136;2023-04-15T08:04:23;100856.53;;;35.54;nan
61086;BME280;46967;48.876;2.136;2023-04-15T08:06:49;100864.88;;;35.39;nan
61086;BME280;46967;48.876;2.136;2023-04-15T08:09:15;100873.47;;;33.84;nan
61086;BME280;46967;48.876;2.136;2023-04-15T08:11:40;100875.59;;;34.30;nan
61086;BME280;46967;48.876;2.136;2023-04-15T08:14:06;100879.34;;;34.91;nan
61086;BME280;46967;48.876;2.136;2023-04-15T08:16:32;100876.91;;;35.30;nan
61086;BME280;46967;48.876;2.136;2023-04-15T08:18:57;100877.59;;;36.69;nan
61086;BME280;46967;48.876;2.136;2023-04-15T08:21:23;100889.69;;;34.88;nan
61086;BME280;46967;48.876;2.136;2023-04-15T08:23:50;100895.16;;;35.48;nan
61086;BME280;46967;48.876;2.136;2023-04-15T08:26:16;100903.44;;;35.46;nan
61086;BME280;46967;48.876;2.136;2023-04-15T08:28:43;100912.66;;;36.31;nan
61086;BME280;46967;48.876;2.136;2023-04-15T08:31:11;100918.16;;;36.04;nan
61086;BME280;46967;48.876;2.136;2023-04-15T08:33:37;100929.75;;;35.11;nan
61086;BME280;46967;48.876;2.136;2023-04-15T08:36:02;100936.81;;;36.71;nan
61086;BME280;46967;48.876;2.136;2023-04-15T08:38:28;100941.59;;;36.10;nan
61086;BME280;46967;48.876;2.136;2023-04-15T08:40:54;100949.38;;;36.52;nan
61086;BME280;46967;48.876;2.136;2023-04-15T08:43:23;100960.13;;;37.93;nan
61086;BME280;46967;48.876;2.136;2023-04-15T08:45:51;100956.75;;;36.76;nan
61086;BME280;46967;48.876;2.136;2023-04-15T08:48:17;100970.47;;;37.77;nan
61086;BME280;46967;48.876;2.136;2023-04-15T08:50:43;100974.56;;;38.05;nan
61086;BME280;46967;48.876;2.136;2023-04-15T08:53:10;100974.38;;;38.25;nan
61086;BME280;46967;48.876;2.136;2023-04-15T08:55:40;100977.13;;;37.49;nan
61086;BME280;46967;48.876;2.136;2023-04-15T08:58:07;100982.50;;;36.86;nan
61086;BME280;46967;48.876;2.136;2023-04-15T09:00:33;100991.50;;;37.11;nan
61086;BME280;46967;48.876;2.136;2023-04-15T09:02:58;100990.88;;;38.23;nan
61086;BME280;46967;48.876;2.136;2023-04-15T09:05:25;101004.00;;;37.12;nan
61086;BME280;46967;48.876;2.136;2023-04-15T09:07:50;101003.91;;;36.02;nan
61086;BME280;46967;48.876;2.136;2023-04-15T09:10:16;101005.56;;;36.30;nan
61086;BME280;46967;48.876;2.136;2023-04-15T09:12:42;101014.84;;;37.44;nan
61086;BME280;46967;48.876;2.136;2023-04-15T09:15:10;101023.28;;;37.86;nan
61086;BME280;46967;48.876;2.136;2023-04-15T09:17:42;101031.81;;;37.26;nan
61086;BME280;46967;48.876;2.136;2023-04-15T09:20:12;101026.16;;;38.17;nan
61086;BME280;46967;48.876;2.136;2023-04-15T09:22:39;101032.56;;;38.41;nan
61086;BME280;46967;48.876;2.136;2023-04-15T09:25:26;101040.19;;;36.53;nan
61086;BME280;46967;48.876;2.136;2023-04-15T09:28:02;101040.84;;;38.02;nan
61086;BME280;46967;48.876;2.136;2023-04-15T09:30:28;101039.19;;;36.34;nan
61086;BME280;46967;48.876;2.136;2023-04-15T09:32:57;101057.84;;;36.55;nan
61086;BME280;46967;48.876;2.136;2023-04-15T09:35:24;101056.88;;;37.47;nan
61086;BME280;46967;48.876;2.136;2023-04-15T09:37:50;101063.25;;;36.55;nan
61086;BME280;46967;48.876;2.136;2023-04-15T09:40:39;101067.25;;;37.50;nan
61086;BME280;46967;48.876;2.136;2023-04-15T09:43:07;101079.84;;;38.45;nan
61086;BME280;46967;48.876;2.136;2023-04-15T09:45:33;101080.59;;;38.34;nan
61086;BME280;46967;48.876;2.136;2023-04-15T09:48:23;101085.66;;;39.65;nan
61086;BME280;46967;48.876;2.136;2023-04-15T09:50:51;101092.16;;;39.64;nan
61086;BME280;46967;48.876;2.136;2023-04-15T09:53:23;101099.19;;;37.98;nan
61086;BME280;46967;48.876;2.136;2023-04-15T09:55:50;101097.13;;;35.84;nan
61086;BME280;46967;48.876;2.136;2023-04-15T09:58:26;101102.22;;;37.51;nan
61086;BME280;46967;48.876;2.136;2023-04-15T10:00:53;101108.78;;;37.62;nan
61086;BME280;46967;48.876;2.136;2023-04-15T10:03:26;101112.19;;;37.58;nan
61086;BME280;46967;48.876;2.136;2023-04-15T10:05:53;101109.00;;;37.99;nan
61086;BME280;46967;48.876;2.136;2023-04-15T10:08:24;101111.81;;;37.02;nan
61086;BME280;46967;48.876;2.136;2023-04-15T10:10:50;101123.97;;;37.31;nan
61086;BME280;46967;48.876;2.136;2023-04-15T10:13:18;101121.22;;;38.34;nan
61086;BME280;46967;48.876;2.136;2023-04-15T10:15:44;101129.78;;;38.74;nan
61086;BME280;46967;48.876;2.136;2023-04-15T10:18:14;101131.16;;;38.40;nan
61086;BME280;46967;48.876;2.136;2023-04-15T10:20:41;101140.41;;;39.62;nan
61086;BME280;46967;48.876;2.136;2023-04-15T10:23:08;101149.34;;;38.58;nan
61086;BME280;46967;48.876;2.136;2023-04-15T10:25:33;101140.41;;;39.31;nan
61086;BME280;46967;48.876;2.136;2023-04-15T10:27:59;101146.72;;;38.26;nan
61086;BME280;46967;48.876;2.136;2023-04-15T10:30:24;101162.56;;;38.22;nan
61086;BME280;46967;48.876;2.136;2023-04-15T10:32:50;101166.69;;;37.09;nan
61086;BME280;46967;48.876;2.136;2023-04-15T10:35:17;101161.22;;;39.19;nan
61086;BME280;46967;48.876;2.136;2023-04-15T10:37:42;101164.56;;;39.52;nan
61086;BME280;46967;48.876;2.136;2023-04-15T10:43:23;101178.91;;;38.85;nan
61086;BME280;46967;48.876;2.136;2023-04-15T10:45:49;101171.28;;;38.75;nan
61086;BME280;46967;48.876;2.136;2023-04-15T10:48:15;101179.91;;;37.38;nan
61086;BME280;46967;48.876;2.136;2023-04-15T10:50:55;101184.88;;;37.86;nan
61086;BME280;46967;48.876;2.136;2023-04-15T10:53:29;101189.91;;;38.90;nan
61086;BME280;46967;48.876;2.136;2023-04-15T10:55:56;101203.16;;;38.98;nan
61086;BME280;46967;48.876;2.136;2023-04-15T10:58:23;101206.91;;;38.53;nan
61086;BME280;46967;48.876;2.136;2023-04-15T11:00:51;101215.13;;;38.72;nan
61086;BME280;46967;48.876;2.136;2023-04-15T11:03:35;101212.75;;;39.38;nan
61086;BME280;46967;48.876;2.136;2023-04-15T11:06:01;101207.53;;;38.81;nan
61086;BME280;46967;48.876;2.136;2023-04-15T11:11:18;101223.16;;;39.41;nan
61086;BME280;46967;48.876;2.136;2023-04-15T11:13:48;101219.84;;;39.39;nan
61086;BME280;46967;48.876;2.136;2023-04-15T11:16:14;101225.41;;;39.93;nan
61086;BME280;46967;48.876;2.136;2023-04-15T11:18:39;101227.38;;;39.85;nan
61086;BME280;46967;48.876;2.136;2023-04-15T11:21:06;101232.31;;;40.61;nan
61086;BME280;46967;48.876;2.136;2023-04-15T11:26:02;101239.56;;;40.91;nan
61086;BME280;46967;48.876;2.136;2023-04-15T11:28:30;101235.06;;;40.19;nan
61086;BME280;46967;48.876;2.136;2023-04-15T11:30:56;101242.63;;;40.29;nan
61086;BME280;46967;48.876;2.136;2023-04-15T11:33:23;101236.19;;;40.65;nan
61086;BME280;46967;48.876;2.136;2023-04-15T11:35:49;101242.47;;;41.37;nan
61086;BME280;46967;48.876;2.136;2023-04-15T11:38:16;101242.09;;;41.33;nan
61086;BME280;46967;48.876;2.136;2023-04-15T11:40:42;101253.91;;;41.39;nan
61086;BME280;46967;48.876;2.136;2023-04-15T11:43:16;101259.19;;;40.93;nan
61086;BME280;46967;48.876;2.136;2023-04-15T11:48:22;101259.00;;;41.23;nan
61086;BME280;46967;48.876;2.136;2023-04-15T11:51:03;101273.00;;;41.15;nan
61086;BME280;46967;48.876;2.136;2023-04-15T11:53:43;101279.91;;;39.42;nan
61086;BME280;46967;48.876;2.136;2023-04-15T11:56:10;101276.97;;;40.42;nan
61086;BME280;46967;48.876;2.136;2023-04-15T11:58:40;101281.34;;;40.43;nan
61086;BME280;46967;48.876;2.136;2023-04-15T12:01:07;101298.97;;;39.91;nan
61086;BME280;46967;48.876;2.136;2023-04-15T12:03:40;101289.50;;;41.49;nan
61086;BME280;46967;48.876;2.136;2023-04-15T12:11:44;101302.44;;;42.40;nan
61086;BME280;46967;48.876;2.136;2023-04-15T12:14:30;101315.09;;;41.89;nan
61086;BME280;46967;48.876;2.136;2023-04-15T12:16:58;101315.06;;;41.72;nan
61086;BME280;46967;48.876;2.136;2023-04-15T12:19:29;101313.41;;;41.99;nan
61086;BME280;46967;48.876;2.136;2023-04-15T12:22:01;101318.91;;;42.62;nan
61086;BME280;46967;48.876;2.136;2023-04-15T12:24:30;101321.00;;;41.09;nan
61086;BME280;46967;48.876;2.136;2023-04-15T12:26:56;101328.72;;;42.17;nan
61086;BME280;46967;48.876;2.136;2023-04-15T12:29:27;101333.84;;;41.85;nan
61086;BME280;46967;48.876;2.136;2023-04-15T12:31:57;101349.22;;;40.61;nan
61086;BME280;46967;48.876;2.136;2023-04-15T12:34:33;101346.97;;;39.79;nan
61086;BME280;46967;48.876;2.136;2023-04-15T12:37:03;101352.09;;;39.68;nan
61086;BME280;46967;48.876;2.136;2023-04-15T12:39:30;101350.78;;;38.13;nan
61086;BME280;46967;48.876;2.136;2023-04-15T12:41:57;101361.25;;;40.23;nan
61086;BME280;46967;48.876;2.136;2023-04-15T12:44:23;101360.22;;;39.87;nan
61086;BME280;46967;48.876;2.136;2023-04-15T12:46:49;101369.09;;;39.64;nan
61086;BME280;46967;48.876;2.136;2023-04-15T12:49:15;101377.00;;;39.65;nan
61086;BME280;46967;48.876;2.136;2023-04-15T12:51:43;101377.91;;;38.84;nan
61086;BME280;46967;48.876;2.136;2023-04-15T12:54:08;101372.53;;;38.77;nan
61086;BME280;46967;48.876;2.136;2023-04-15T12:56:34;101381.22;;;39.61;nan
61086;BME280;46967;48.876;2.136;2023-04-15T12:58:59;101396.91;;;40.15;nan
61086;BME280;46967;48.876;2.136;2023-04-15T13:01:25;101392.00;;;41.20;nan
61086;BME280;46967;48.876;2.136;2023-04-15T13:03:50;101407.31;;;40.18;nan
61086;BME280;46967;48.876;2.136;2023-04-15T13:06:16;101405.03;;;39.96;nan
61086;BME280;46967;48.876;2.136;2023-04-15T13:08:41;101419.50;;;38.26;nan
61086;BME280;46967;48.876;2.136;2023-04-15T13:11:07;101419.47;;;39.03;nan
61086;BME280;46967;48.876;2.136;2023-04-15T13:13:32;101433.31;;;38.56;nan
61086;BME280;46967;48.876;2.136;2023-04-15T13:15:58;101435.47;;;37.75;nan
61086;BME280;46967;48.876;2.136;2023-04-15T13:18:24;101434.34;;;38.03;nan
61086;BME280;46967;48.876;2.136;2023-04-15T13:20:50;101429.50;;;38.25;nan
61086;BME280;46967;48.876;2.136;2023-04-15T13:23:15;101439.06;;;39.11;nan